sensor_id;sensor_type;location;lat;lon;timestamp;P1;durP1;ratioP1;P2;durP2;ratioP2
74900;SDS011;63461;51.416;6.758;2022-12-05T00:03:46;43.27;;;17.73;;
74900;SDS011;63461;51.416;6.758;2022-12-05T00:06:13;49.63;;;17.67;;
74900;SDS011;63461;51.416;6.758;2022-12-05T00:08:40;46.00;;;18.43;;
74900;SDS011;63461;51.416;6.758;2022-12-05T00:11:10;50.43;;;19.17;;
74900;SDS011;63461;51.416;6.758;2022-12-05T00:13:41;58.30;;;20.30;;
74900;SDS011;63461;51.416;6.758;2022-12-05T00:16:09;46.73;;;19.67;;
74900;SDS011;63461;51.416;6.758;2022-12-05T00:18:36;47.80;;;18.80;;
74900;SDS011;63461;51.416;6.758;2022-12-05T00:21:02;51.33;;;18.63;;
74900;SDS011;63461;51.416;6.758;2022-12-05T00:23:29;51.27;;;18.83;;
74900;SDS011;63461;51.416;6.758;2022-12-05T00:25:55;51.27;;;18.67;;
74900;SDS011;63461;51.416;6.758;2022-12-05T00:28:21;44.20;;;17.90;;
74900;SDS011;63461;51.416;6.758;2022-12-05T00:30:46;54.23;;;19.77;;
74900;SDS011;63461;51.416;6.758;2022-12-05T00:33:12;45.87;;;18.83;;
74900;SDS011;63461;51.416;6.758;2022-12-05T00:35:38;44.00;;;18.07;;
74900;SDS011;63461;51.416;6.758;2022-12-05T00:38:03;47.57;;;19.37;;
74900;SDS011;63461;51.416;6.758;2022-12-05T00:40:29;45.10;;;19.60;;
74900;SDS011;63461;51.416;6.758;2022-12-05T00:42:55;48.03;;;19.33;;
74900;SDS011;63461;51.416;6.758;2022-12-05T00:45:20;49.73;;;20.27;;
74900;SDS011;63461;51.416;6.758;2022-12-05T00:47:46;43.53;;;18.60;;
74900;SDS011;63461;51.416;6.758;2022-12-05T00:50:12;43.63;;;17.90;;
74900;SDS011;63461;51.416;6.758;2022-12-05T00:52:38;55.23;;;19.43;;
74900;SDS011;63461;51.416;6.758;2022-12-05T00:55:03;46.73;;;19.10;;
74900;SDS011;63461;51.416;6.758;2022-12-05T00:57:30;48.60;;;19.10;;
74900;SDS011;63461;51.416;6.758;2022-12-05T00:59:56;59.33;;;18.90;;
74900;SDS011;63461;51.416;6.758;2022-12-05T01:02:22;45.13;;;17.97;;
74900;SDS011;63461;51.416;6.758;2022-12-05T01:04:47;45.30;;;18.03;;
74900;SDS011;63461;51.416;6.758;2022-12-05T01:07:13;44.57;;;17.97;;
74900;SDS011;63461;51.416;6.758;2022-12-05T01:09:39;45.67;;;18.13;;
74900;SDS011;63461;51.416;6.758;2022-12-05T01:12:05;43.73;;;17.63;;
74900;SDS011;63461;51.416;6.758;2022-12-05T01:14:31;45.60;;;19.40;;
74900;SDS011;63461;51.416;6.758;2022-12-05T01:16:56;44.57;;;17.03;;
74900;SDS011;63461;51.416;6.758;2022-12-05T01:19:25;46.07;;;19.17;;
74900;SDS011;63461;51.416;6.758;2022-12-05T01:21:53;39.10;;;17.33;;
74900;SDS011;63461;51.416;6.758;2022-12-05T01:24:19;43.27;;;19.10;;
74900;SDS011;63461;51.416;6.758;2022-12-05T01:26:46;50.87;;;19.77;;
74900;SDS011;63461;51.416;6.758;2022-12-05T01:29:13;44.37;;;18.33;;
74900;SDS011;63461;51.416;6.758;2022-12-05T01:31:40;46.97;;;18.63;;
74900;SDS011;63461;51.416;6.758;2022-12-05T01:34:08;42.23;;;17.87;;
74900;SDS011;63461;51.416;6.758;2022-12-05T01:36:36;43.00;;;17.90;;
74900;SDS011;63461;51.416;6.758;2022-12-05T01:39:04;43.13;;;17.87;;
74900;SDS011;63461;51.416;6.758;2022-12-05T01:41:31;46.33;;;18.07;;
74900;SDS011;63461;51.416;6.758;2022-12-05T01:44:01;43.50;;;18.40;;
74900;SDS011;63461;51.416;6.758;2022-12-05T01:46:38;45.20;;;18.63;;
74900;SDS011;63461;51.416;6.758;2022-12-05T01:49:08;49.03;;;19.20;;
74900;SDS011;63461;51.416;6.758;2022-12-05T01:51:58;44.23;;;18.77;;
74900;SDS011;63461;51.416;6.758;2022-12-05T01:54:33;48.00;;;18.77;;
74900;SDS011;63461;51.416;6.758;2022-12-05T01:57:05;43.30;;;18.07;;
74900;SDS011;63461;51.416;6.758;2022-12-05T01:59:35;42.37;;;19.03;;
74900;SDS011;63461;51.416;6.758;2022-12-05T02:02:03;47.30;;;18.87;;
74900;SDS011;63461;51.416;6.758;2022-12-05T02:04:30;46.90;;;18.83;;
74900;SDS011;63461;51.416;6.758;2022-12-05T02:06:59;48.80;;;19.43;;
74900;SDS011;63461;51.416;6.758;2022-12-05T02:09:25;39.97;;;18.30;;
74900;SDS011;63461;51.416;6.758;2022-12-05T02:11:55;48.23;;;18.57;;
74900;SDS011;63461;51.416;6.758;2022-12-05T02:31:07;49.40;;;18.90;;
74900;SDS011;63461;51.416;6.758;2022-12-05T02:33:43;42.90;;;19.07;;
74900;SDS011;63461;51.416;6.758;2022-12-05T02:36:16;50.83;;;18.57;;
74900;SDS011;63461;51.416;6.758;2022-12-05T02:38:58;48.83;;;18.93;;
74900;SDS011;63461;51.416;6.758;2022-12-05T02:41:34;44.93;;;18.40;;
74900;SDS011;63461;51.416;6.758;2022-12-05T02:44:07;44.93;;;18.80;;
74900;SDS011;63461;51.416;6.758;2022-12-05T02:46:41;51.13;;;19.53;;
74900;SDS011;63461;51.416;6.758;2022-12-05T02:49:12;48.77;;;19.63;;
74900;SDS011;63461;51.416;6.758;2022-12-05T02:51:47;44.33;;;18.30;;
74900;SDS011;63461;51.416;6.758;2022-12-05T02:54:18;46.40;;;18.87;;
74900;SDS011;63461;51.416;6.758;2022-12-05T02:56:48;54.20;;;19.73;;
74900;SDS011;63461;51.416;6.758;2022-12-05T02:59:15;46.67;;;18.83;;
74900;SDS011;63461;51.416;6.758;2022-12-05T03:01:42;48.60;;;19.63;;
74900;SDS011;63461;51.416;6.758;2022-12-05T03:04:10;48.73;;;19.03;;
74900;SDS011;63461;51.416;6.758;2022-12-05T03:06:42;49.97;;;19.90;;
74900;SDS011;63461;51.416;6.758;2022-12-05T03:09:12;50.93;;;19.63;;
74900;SDS011;63461;51.416;6.758;2022-12-05T03:11:59;46.87;;;18.67;;
74900;SDS011;63461;51.416;6.758;2022-12-05T03:14:42;50.60;;;18.93;;
74900;SDS011;63461;51.416;6.758;2022-12-05T03:17:13;50.10;;;20.17;;
74900;SDS011;63461;51.416;6.758;2022-12-05T03:20:19;50.73;;;21.33;;
74900;SDS011;63461;51.416;6.758;2022-12-05T03:25:39;53.13;;;18.67;;
74900;SDS011;63461;51.416;6.758;2022-12-05T03:28:10;44.50;;;18.33;;
74900;SDS011;63461;51.416;6.758;2022-12-05T03:30:44;43.93;;;18.37;;
74900;SDS011;63461;51.416;6.758;2022-12-05T03:35:56;45.27;;;18.07;;
74900;SDS011;63461;51.416;6.758;2022-12-05T03:38:34;43.63;;;16.83;;
74900;SDS011;63461;51.416;6.758;2022-12-05T03:41:13;46.20;;;17.70;;
74900;SDS011;63461;51.416;6.758;2022-12-05T03:43:54;48.77;;;19.07;;
74900;SDS011;63461;51.416;6.758;2022-12-05T03:46:36;47.07;;;18.97;;
74900;SDS011;63461;51.416;6.758;2022-12-05T03:49:16;48.40;;;18.10;;
74900;SDS011;63461;51.416;6.758;2022-12-05T03:51:56;47.90;;;17.60;;
74900;SDS011;63461;51.416;6.758;2022-12-05T03:54:41;46.97;;;18.30;;
74900;SDS011;63461;51.416;6.758;2022-12-05T03:57:12;47.17;;;18.93;;
74900;SDS011;63461;51.416;6.758;2022-12-05T03:59:43;42.73;;;18.33;;
74900;SDS011;63461;51.416;6.758;2022-12-05T04:02:26;47.70;;;18.07;;
74900;SDS011;63461;51.416;6.758;2022-12-05T04:05:24;52.37;;;18.70;;
74900;SDS011;63461;51.416;6.758;2022-12-05T04:07:57;46.13;;;18.60;;
74900;SDS011;63461;51.416;6.758;2022-12-05T04:10:30;49.70;;;20.50;;
74900;SDS011;63461;51.416;6.758;2022-12-05T04:13:12;47.10;;;18.63;;
74900;SDS011;63461;51.416;6.758;2022-12-05T04:15:50;50.57;;;19.57;;
74900;SDS011;63461;51.416;6.758;2022-12-05T04:18:41;48.43;;;18.07;;
74900;SDS011;63461;51.416;6.758;2022-12-05T04:21:13;50.93;;;19.57;;
74900;SDS011;63461;51.416;6.758;2022-12-05T04:24:00;47.20;;;18.70;;
74900;SDS011;63461;51.416;6.758;2022-12-05T04:26:45;44.80;;;18.37;;
74900;SDS011;63461;51.416;6.758;2022-12-05T04:29:20;48.03;;;18.63;;
74900;SDS011;63461;51.416;6.758;2022-12-05T04:31:55;44.83;;;17.93;;
74900;SDS011;63461;51.416;6.758;2022-12-05T04:34:25;45.90;;;18.07;;
74900;SDS011;63461;51.416;6.758;2022-12-05T04:37:03;41.57;;;17.43;;
74900;SDS011;63461;51.416;6.758;2022-12-05T04:39:36;46.47;;;17.70;;
74900;SDS011;63461;51.416;6.758;2022-12-05T04:42:13;41.33;;;17.03;;
74900;SDS011;63461;51.416;6.758;2022-12-05T04:45:04;42.33;;;16.90;;
74900;SDS011;63461;51.416;6.758;2022-12-05T04:47:34;52.53;;;18.20;;
74900;SDS011;63461;51.416;6.758;2022-12-05T04:50:04;44.17;;;17.23;;
74900;SDS011;63461;51.416;6.758;2022-12-05T04:52:32;44.50;;;17.00;;
74900;SDS011;63461;51.416;6.758;2022-12-05T04:55:08;47.57;;;18.37;;
74900;SDS011;63461;51.416;6.758;2022-12-05T05:00:14;43.23;;;17.50;;
74900;SDS011;63461;51.416;6.758;2022-12-05T05:02:45;48.77;;;18.60;;
74900;SDS011;63461;51.416;6.758;2022-12-05T05:05:16;47.07;;;18.63;;
74900;SDS011;63461;51.416;6.758;2022-12-05T05:07:47;45.53;;;18.00;;
74900;SDS011;63461;51.416;6.758;2022-12-05T05:10:19;45.47;;;18.17;;
74900;SDS011;63461;51.416;6.758;2022-12-05T05:12:57;47.47;;;17.37;;
74900;SDS011;63461;51.416;6.758;2022-12-05T05:15:23;45.43;;;16.93;;
74900;SDS011;63461;51.416;6.758;2022-12-05T05:17:49;45.67;;;17.40;;
74900;SDS011;63461;51.416;6.758;2022-12-05T05:20:14;48.57;;;18.37;;
74900;SDS011;63461;51.416;6.758;2022-12-05T05:22:50;53.60;;;18.97;;
74900;SDS011;63461;51.416;6.758;2022-12-05T05:25:16;48.90;;;20.03;;
74900;SDS011;63461;51.416;6.758;2022-12-05T05:27:42;53.40;;;19.47;;
74900;SDS011;63461;51.416;6.758;2022-12-05T05:30:13;47.83;;;19.17;;
74900;SDS011;63461;51.416;6.758;2022-12-05T05:32:39;49.57;;;19.53;;
74900;SDS011;63461;51.416;6.758;2022-12-05T05:35:05;49.40;;;19.67;;
74900;SDS011;63461;51.416;6.758;2022-12-05T05:37:30;55.03;;;18.30;;
74900;SDS011;63461;51.416;6.758;2022-12-05T05:39:56;46.47;;;17.73;;
74900;SDS011;63461;51.416;6.758;2022-12-05T05:42:22;49.23;;;19.30;;
74900;SDS011;63461;51.416;6.758;2022-12-05T05:44:48;45.50;;;18.07;;
74900;SDS011;63461;51.416;6.758;2022-12-05T05:47:13;47.70;;;18.37;;
74900;SDS011;63461;51.416;6.758;2022-12-05T05:49:39;43.57;;;18.23;;
74900;SDS011;63461;51.416;6.758;2022-12-05T05:52:05;45.57;;;17.53;;
74900;SDS011;63461;51.416;6.758;2022-12-05T05:54:30;45.60;;;18.83;;
74900;SDS011;63461;51.416;6.758;2022-12-05T05:56:56;48.03;;;19.23;;
74900;SDS011;63461;51.416;6.758;2022-12-05T05:59:22;46.87;;;17.73;;
74900;SDS011;63461;51.416;6.758;2022-12-05T06:01:47;48.67;;;18.70;;
74900;SDS011;63461;51.416;6.758;2022-12-05T06:04:13;45.40;;;18.30;;
74900;SDS011;63461;51.416;6.758;2022-12-05T06:06:39;42.80;;;17.53;;
74900;SDS011;63461;51.416;6.758;2022-12-05T06:09:05;45.67;;;17.80;;
74900;SDS011;63461;51.416;6.758;2022-12-05T06:11:31;52.97;;;18.73;;
74900;SDS011;63461;51.416;6.758;2022-12-05T06:13:58;40.13;;;16.73;;
74900;SDS011;63461;51.416;6.758;2022-12-05T06:16:26;41.50;;;17.50;;
74900;SDS011;63461;51.416;6.758;2022-12-05T06:18:52;47.13;;;17.47;;
74900;SDS011;63461;51.416;6.758;2022-12-05T06:21:18;46.07;;;17.37;;
74900;SDS011;63461;51.416;6.758;2022-12-05T06:23:45;38.57;;;16.57;;
74900;SDS011;63461;51.416;6.758;2022-12-05T06:26:12;45.90;;;17.57;;
74900;SDS011;63461;51.416;6.758;2022-12-05T06:28:39;46.47;;;16.90;;
74900;SDS011;63461;51.416;6.758;2022-12-05T06:31:15;42.93;;;17.50;;
74900;SDS011;63461;51.416;6.758;2022-12-05T06:33:43;37.67;;;15.83;;
74900;SDS011;63461;51.416;6.758;2022-12-05T06:36:11;41.30;;;15.70;;
74900;SDS011;63461;51.416;6.758;2022-12-05T06:38:38;38.20;;;16.13;;
74900;SDS011;63461;51.416;6.758;2022-12-05T06:41:05;37.10;;;16.17;;
74900;SDS011;63461;51.416;6.758;2022-12-05T06:43:41;43.57;;;17.27;;
74900;SDS011;63461;51.416;6.758;2022-12-05T06:46:08;36.13;;;15.57;;
74900;SDS011;63461;51.416;6.758;2022-12-05T06:48:35;39.33;;;15.57;;
74900;SDS011;63461;51.416;6.758;2022-12-05T06:51:01;36.97;;;14.80;;
74900;SDS011;63461;51.416;6.758;2022-12-05T06:53:27;36.63;;;16.73;;
74900;SDS011;63461;51.416;6.758;2022-12-05T06:55:54;38.50;;;15.47;;
74900;SDS011;63461;51.416;6.758;2022-12-05T06:58:21;37.10;;;15.73;;
74900;SDS011;63461;51.416;6.758;2022-12-05T07:00:47;38.63;;;15.77;;
74900;SDS011;63461;51.416;6.758;2022-12-05T07:03:31;37.23;;;15.27;;
74900;SDS011;63461;51.416;6.758;2022-12-05T07:06:00;40.67;;;15.57;;
74900;SDS011;63461;51.416;6.758;2022-12-05T07:08:28;33.53;;;13.87;;
74900;SDS011;63461;51.416;6.758;2022-12-05T07:10:54;31.47;;;13.80;;
74900;SDS011;63461;51.416;6.758;2022-12-05T07:13:20;32.53;;;13.80;;
74900;SDS011;63461;51.416;6.758;2022-12-05T07:15:46;37.83;;;15.20;;
74900;SDS011;63461;51.416;6.758;2022-12-05T07:18:13;33.20;;;14.60;;
74900;SDS011;63461;51.416;6.758;2022-12-05T07:20:40;32.40;;;13.90;;
74900;SDS011;63461;51.416;6.758;2022-12-05T07:23:06;33.67;;;13.40;;
74900;SDS011;63461;51.416;6.758;2022-12-05T07:25:32;31.23;;;12.97;;
74900;SDS011;63461;51.416;6.758;2022-12-05T07:27:58;33.50;;;14.37;;
74900;SDS011;63461;51.416;6.758;2022-12-05T07:30:24;33.73;;;14.77;;
74900;SDS011;63461;51.416;6.758;2022-12-05T07:32:49;29.93;;;13.77;;
74900;SDS011;63461;51.416;6.758;2022-12-05T07:35:15;35.13;;;15.07;;
74900;SDS011;63461;51.416;6.758;2022-12-05T07:37:41;31.77;;;13.93;;
74900;SDS011;63461;51.416;6.758;2022-12-05T07:40:07;33.60;;;13.43;;
74900;SDS011;63461;51.416;6.758;2022-12-05T07:42:33;30.03;;;13.53;;
74900;SDS011;63461;51.416;6.758;2022-12-05T07:44:58;27.77;;;13.43;;
74900;SDS011;63461;51.416;6.758;2022-12-05T07:47:24;28.83;;;13.37;;
74900;SDS011;63461;51.416;6.758;2022-12-05T07:49:50;28.80;;;13.50;;
74900;SDS011;63461;51.416;6.758;2022-12-05T07:52:16;29.70;;;12.90;;
74900;SDS011;63461;51.416;6.758;2022-12-05T07:54:41;30.13;;;13.80;;
74900;SDS011;63461;51.416;6.758;2022-12-05T07:57:07;28.43;;;13.17;;
74900;SDS011;63461;51.416;6.758;2022-12-05T07:59:33;29.33;;;12.83;;
74900;SDS011;63461;51.416;6.758;2022-12-05T08:01:59;28.00;;;12.70;;
74900;SDS011;63461;51.416;6.758;2022-12-05T08:04:25;25.80;;;11.80;;
74900;SDS011;63461;51.416;6.758;2022-12-05T08:06:50;25.43;;;12.10;;
74900;SDS011;63461;51.416;6.758;2022-12-05T08:09:16;28.83;;;12.53;;
74900;SDS011;63461;51.416;6.758;2022-12-05T08:11:42;26.90;;;12.00;;
74900;SDS011;63461;51.416;6.758;2022-12-05T08:14:07;24.43;;;11.40;;
74900;SDS011;63461;51.416;6.758;2022-12-05T08:16:34;22.73;;;12.10;;
74900;SDS011;63461;51.416;6.758;2022-12-05T08:19:01;27.00;;;12.20;;
74900;SDS011;63461;51.416;6.758;2022-12-05T08:21:30;24.33;;;11.63;;
74900;SDS011;63461;51.416;6.758;2022-12-05T08:23:56;24.07;;;11.30;;
74900;SDS011;63461;51.416;6.758;2022-12-05T08:26:23;24.60;;;10.83;;
74900;SDS011;63461;51.416;6.758;2022-12-05T08:28:54;23.03;;;11.07;;
74900;SDS011;63461;51.416;6.758;2022-12-05T08:31:21;21.57;;;10.77;;
74900;SDS011;63461;51.416;6.758;2022-12-05T08:33:49;19.47;;;10.23;;
74900;SDS011;63461;51.416;6.758;2022-12-05T08:36:15;23.60;;;10.67;;
74900;SDS011;63461;51.416;6.758;2022-12-05T08:38:41;23.40;;;10.33;;
74900;SDS011;63461;51.416;6.758;2022-12-05T08:41:09;21.60;;;10.37;;
74900;SDS011;63461;51.416;6.758;2022-12-05T08:43:37;20.97;;;10.67;;
74900;SDS011;63461;51.416;6.758;2022-12-05T08:46:03;21.73;;;9.93;;
74900;SDS011;63461;51.416;6.758;2022-12-05T08:48:29;20.10;;;9.80;;
74900;SDS011;63461;51.416;6.758;2022-12-05T08:50:56;21.40;;;10.30;;
74900;SDS011;63461;51.416;6.758;2022-12-05T08:53:23;20.33;;;10.17;;
74900;SDS011;63461;51.416;6.758;2022-12-05T08:55:50;20.17;;;9.70;;
74900;SDS011;63461;51.416;6.758;2022-12-05T08:58:15;21.03;;;9.67;;
74900;SDS011;63461;51.416;6.758;2022-12-05T09:00:41;20.13;;;9.63;;
74900;SDS011;63461;51.416;6.758;2022-12-05T09:03:10;22.47;;;10.07;;
74900;SDS011;63461;51.416;6.758;2022-12-05T09:05:37;19.13;;;9.50;;
74900;SDS011;63461;51.416;6.758;2022-12-05T09:08:03;18.87;;;9.47;;
74900;SDS011;63461;51.416;6.758;2022-12-05T09:10:29;21.53;;;10.03;;
74900;SDS011;63461;51.416;6.758;2022-12-05T09:12:55;17.10;;;9.27;;
74900;SDS011;63461;51.416;6.758;2022-12-05T09:15:21;19.30;;;9.70;;
74900;SDS011;63461;51.416;6.758;2022-12-05T09:17:47;16.47;;;8.63;;
74900;SDS011;63461;51.416;6.758;2022-12-05T09:20:12;16.23;;;8.13;;
74900;SDS011;63461;51.416;6.758;2022-12-05T09:22:39;18.03;;;9.17;;
74900;SDS011;63461;51.416;6.758;2022-12-05T09:25:05;18.30;;;9.60;;
74900;SDS011;63461;51.416;6.758;2022-12-05T09:27:32;17.47;;;8.93;;
74900;SDS011;63461;51.416;6.758;2022-12-05T09:29:57;18.63;;;9.10;;
74900;SDS011;63461;51.416;6.758;2022-12-05T09:32:23;17.73;;;9.23;;
74900;SDS011;63461;51.416;6.758;2022-12-05T09:34:49;16.60;;;8.63;;
74900;SDS011;63461;51.416;6.758;2022-12-05T09:37:15;18.00;;;8.80;;
74900;SDS011;63461;51.416;6.758;2022-12-05T09:39:43;18.27;;;8.97;;
74900;SDS011;63461;51.416;6.758;2022-12-05T09:42:17;19.40;;;8.67;;
74900;SDS011;63461;51.416;6.758;2022-12-05T09:56:12;17.00;;;8.60;;
74900;SDS011;63461;51.416;6.758;2022-12-05T10:00:58;18.13;;;9.03;;
74900;SDS011;63461;51.416;6.758;2022-12-05T10:03:29;16.20;;;8.73;;
74900;SDS011;63461;51.416;6.758;2022-12-05T10:11:17;17.33;;;9.20;;
74900;SDS011;63461;51.416;6.758;2022-12-05T10:16:20;18.70;;;9.40;;
74900;SDS011;63461;51.416;6.758;2022-12-05T10:18:57;17.57;;;9.13;;
74900;SDS011;63461;51.416;6.758;2022-12-05T10:21:35;19.53;;;10.23;;
74900;SDS011;63461;51.416;6.758;2022-12-05T10:24:12;18.80;;;9.47;;
74900;SDS011;63461;51.416;6.758;2022-12-05T10:26:45;19.53;;;9.37;;
74900;SDS011;63461;51.416;6.758;2022-12-05T10:32:06;22.33;;;10.83;;
74900;SDS011;63461;51.416;6.758;2022-12-05T10:34:48;21.03;;;10.73;;
74900;SDS011;63461;51.416;6.758;2022-12-05T10:37:16;21.53;;;11.70;;
74900;SDS011;63461;51.416;6.758;2022-12-05T10:39:43;23.87;;;11.60;;
74900;SDS011;63461;51.416;6.758;2022-12-05T10:42:12;24.47;;;12.60;;
74900;SDS011;63461;51.416;6.758;2022-12-05T10:44:41;24.90;;;12.40;;
74900;SDS011;63461;51.416;6.758;2022-12-05T10:47:08;24.63;;;12.50;;
74900;SDS011;63461;51.416;6.758;2022-12-05T10:49:34;23.93;;;12.57;;
74900;SDS011;63461;51.416;6.758;2022-12-05T10:52:02;25.23;;;12.00;;
74900;SDS011;63461;51.416;6.758;2022-12-05T10:54:29;24.33;;;11.87;;
74900;SDS011;63461;51.416;6.758;2022-12-05T10:56:59;24.07;;;12.03;;
74900;SDS011;63461;51.416;6.758;2022-12-05T10:59:41;23.60;;;12.20;;
74900;SDS011;63461;51.416;6.758;2022-12-05T11:02:17;27.07;;;13.23;;
74900;SDS011;63461;51.416;6.758;2022-12-05T11:04:50;25.57;;;12.27;;
74900;SDS011;63461;51.416;6.758;2022-12-05T11:07:37;25.20;;;11.83;;
74900;SDS011;63461;51.416;6.758;2022-12-05T11:12:46;23.30;;;11.73;;
74900;SDS011;63461;51.416;6.758;2022-12-05T11:17:46;24.57;;;11.90;;
74900;SDS011;63461;51.416;6.758;2022-12-05T11:22:44;23.50;;;11.60;;
74900;SDS011;63461;51.416;6.758;2022-12-05T11:25:46;23.23;;;11.57;;
74900;SDS011;63461;51.416;6.758;2022-12-05T11:30:54;25.10;;;11.40;;
74900;SDS011;63461;51.416;6.758;2022-12-05T11:33:35;23.40;;;10.77;;
74900;SDS011;63461;51.416;6.758;2022-12-05T11:36:02;22.30;;;11.77;;
74900;SDS011;63461;51.416;6.758;2022-12-05T11:38:37;20.97;;;9.73;;
74900;SDS011;63461;51.416;6.758;2022-12-05T11:41:09;18.90;;;10.50;;
74900;SDS011;63461;51.416;6.758;2022-12-05T11:51:48;21.77;;;10.90;;
74900;SDS011;63461;51.416;6.758;2022-12-05T11:57:32;27.30;;;12.50;;
74900;SDS011;63461;51.416;6.758;2022-12-05T12:00:18;23.23;;;11.50;;
74900;SDS011;63461;51.416;6.758;2022-12-05T12:05:55;22.70;;;12.00;;
74900;SDS011;63461;51.416;6.758;2022-12-05T12:09:03;26.17;;;13.70;;
74900;SDS011;63461;51.416;6.758;2022-12-05T12:23:40;25.67;;;13.00;;
74900;SDS011;63461;51.416;6.758;2022-12-05T12:26:38;23.57;;;12.17;;
74900;SDS011;63461;51.416;6.758;2022-12-05T12:31:45;25.13;;;12.27;;
74900;SDS011;63461;51.416;6.758;2022-12-05T12:37:09;27.33;;;14.43;;
74900;SDS011;63461;51.416;6.758;2022-12-05T12:39:51;29.43;;;14.67;;
74900;SDS011;63461;51.416;6.758;2022-12-05T12:42:39;33.10;;;15.43;;
74900;SDS011;63461;51.416;6.758;2022-12-05T12:45:19;28.87;;;15.00;;
74900;SDS011;63461;51.416;6.758;2022-12-05T12:47:56;28.33;;;14.00;;
74900;SDS011;63461;51.416;6.758;2022-12-05T12:50:45;30.43;;;15.63;;
74900;SDS011;63461;51.416;6.758;2022-12-05T13:01:03;27.57;;;14.23;;
74900;SDS011;63461;51.416;6.758;2022-12-05T13:03:51;31.77;;;15.30;;
74900;SDS011;63461;51.416;6.758;2022-12-05T13:06:38;24.70;;;13.57;;
74900;SDS011;63461;51.416;6.758;2022-12-05T13:09:15;27.70;;;13.50;;
74900;SDS011;63461;51.416;6.758;2022-12-05T13:12:07;27.20;;;14.23;;
74900;SDS011;63461;51.416;6.758;2022-12-05T13:14:37;25.00;;;13.30;;
74900;SDS011;63461;51.416;6.758;2022-12-05T13:17:09;28.77;;;14.20;;
74900;SDS011;63461;51.416;6.758;2022-12-05T13:22:10;28.40;;;13.83;;
74900;SDS011;63461;51.416;6.758;2022-12-05T13:24:37;26.30;;;13.43;;
74900;SDS011;63461;51.416;6.758;2022-12-05T13:27:05;25.13;;;13.67;;
74900;SDS011;63461;51.416;6.758;2022-12-05T13:29:34;23.17;;;11.70;;
74900;SDS011;63461;51.416;6.758;2022-12-05T13:32:04;21.87;;;12.03;;
74900;SDS011;63461;51.416;6.758;2022-12-05T13:34:38;23.83;;;11.30;;
74900;SDS011;63461;51.416;6.758;2022-12-05T13:37:11;19.60;;;11.27;;
74900;SDS011;63461;51.416;6.758;2022-12-05T13:40:02;22.77;;;11.40;;
74900;SDS011;63461;51.416;6.758;2022-12-05T13:42:48;19.90;;;11.57;;
74900;SDS011;63461;51.416;6.758;2022-12-05T13:45:24;18.80;;;10.70;;
74900;SDS011;63461;51.416;6.758;2022-12-05T13:47:54;20.90;;;11.13;;
74900;SDS011;63461;51.416;6.758;2022-12-05T13:55:59;15.13;;;8.53;;
74900;SDS011;63461;51.416;6.758;2022-12-05T14:09:03;13.93;;;8.60;;
74900;SDS011;63461;51.416;6.758;2022-12-05T14:17:21;14.17;;;8.57;;
74900;SDS011;63461;51.416;6.758;2022-12-05T14:28:51;13.97;;;8.17;;
74900;SDS011;63461;51.416;6.758;2022-12-05T14:34:26;15.13;;;8.03;;
74900;SDS011;63461;51.416;6.758;2022-12-05T14:39:41;18.13;;;8.93;;
74900;SDS011;63461;51.416;6.758;2022-12-05T14:42:20;16.03;;;8.30;;
74900;SDS011;63461;51.416;6.758;2022-12-05T14:44:54;16.00;;;8.20;;
74900;SDS011;63461;51.416;6.758;2022-12-05T14:47:24;16.47;;;8.63;;
74900;SDS011;63461;51.416;6.758;2022-12-05T14:49:54;17.07;;;8.80;;
74900;SDS011;63461;51.416;6.758;2022-12-05T14:52:26;16.33;;;8.77;;
74900;SDS011;63461;51.416;6.758;2022-12-05T14:55:10;17.53;;;8.70;;
74900;SDS011;63461;51.416;6.758;2022-12-05T14:57:45;14.67;;;8.40;;
74900;SDS011;63461;51.416;6.758;2022-12-05T15:00:20;18.20;;;9.37;;
74900;SDS011;63461;51.416;6.758;2022-12-05T15:02:46;16.80;;;8.87;;
74900;SDS011;63461;51.416;6.758;2022-12-05T15:07:52;17.57;;;9.53;;
74900;SDS011;63461;51.416;6.758;2022-12-05T15:10:37;18.90;;;10.03;;
74900;SDS011;63461;51.416;6.758;2022-12-05T15:13:13;17.27;;;9.13;;
74900;SDS011;63461;51.416;6.758;2022-12-05T15:20:49;18.40;;;10.17;;
74900;SDS011;63461;51.416;6.758;2022-12-05T15:29:08;19.30;;;9.70;;
74900;SDS011;63461;51.416;6.758;2022-12-05T15:32:01;20.20;;;10.43;;
74900;SDS011;63461;51.416;6.758;2022-12-05T15:35:09;18.07;;;10.10;;
74900;SDS011;63461;51.416;6.758;2022-12-05T15:37:33;20.07;;;10.77;;
74900;SDS011;63461;51.416;6.758;2022-12-05T15:47:39;19.13;;;10.57;;
74900;SDS011;63461;51.416;6.758;2022-12-05T15:50:12;17.87;;;10.23;;
74900;SDS011;63461;51.416;6.758;2022-12-05T15:52:40;20.90;;;11.43;;
74900;SDS011;63461;51.416;6.758;2022-12-05T15:55:13;20.10;;;11.03;;
74900;SDS011;63461;51.416;6.758;2022-12-05T15:57:46;19.70;;;10.80;;
74900;SDS011;63461;51.416;6.758;2022-12-05T16:00:18;20.73;;;11.37;;
74900;SDS011;63461;51.416;6.758;2022-12-05T16:02:54;17.60;;;10.40;;
74900;SDS011;63461;51.416;6.758;2022-12-05T16:05:43;20.13;;;10.17;;
74900;SDS011;63461;51.416;6.758;2022-12-05T16:08:24;18.47;;;9.80;;
74900;SDS011;63461;51.416;6.758;2022-12-05T16:10:55;17.77;;;9.50;;
74900;SDS011;63461;51.416;6.758;2022-12-05T16:13:22;19.20;;;10.80;;
74900;SDS011;63461;51.416;6.758;2022-12-05T16:15:50;17.70;;;10.10;;
74900;SDS011;63461;51.416;6.758;2022-12-05T16:18:28;21.43;;;10.50;;
74900;SDS011;63461;51.416;6.758;2022-12-05T16:20:55;21.47;;;10.60;;
74900;SDS011;63461;51.416;6.758;2022-12-05T16:23:26;20.13;;;10.70;;
74900;SDS011;63461;51.416;6.758;2022-12-05T16:26:17;18.83;;;10.47;;
74900;SDS011;63461;51.416;6.758;2022-12-05T16:28:57;20.57;;;11.23;;
74900;SDS011;63461;51.416;6.758;2022-12-05T16:31:27;20.23;;;11.00;;
74900;SDS011;63461;51.416;6.758;2022-12-05T16:34:04;19.10;;;10.40;;
74900;SDS011;63461;51.416;6.758;2022-12-05T16:36:45;16.33;;;9.70;;
74900;SDS011;63461;51.416;6.758;2022-12-05T16:39:13;18.20;;;9.60;;
74900;SDS011;63461;51.416;6.758;2022-12-05T16:41:40;16.53;;;9.57;;
74900;SDS011;63461;51.416;6.758;2022-12-05T16:45:06;15.30;;;8.93;;
74900;SDS011;63461;51.416;6.758;2022-12-05T16:48:08;16.97;;;8.90;;
74900;SDS011;63461;51.416;6.758;2022-12-05T16:53:01;15.80;;;8.47;;
74900;SDS011;63461;51.416;6.758;2022-12-05T16:55:36;15.30;;;8.60;;
74900;SDS011;63461;51.416;6.758;2022-12-05T16:58:07;15.63;;;8.93;;
74900;SDS011;63461;51.416;6.758;2022-12-05T17:00:37;16.63;;;9.53;;
74900;SDS011;63461;51.416;6.758;2022-12-05T17:03:03;20.00;;;9.90;;
74900;SDS011;63461;51.416;6.758;2022-12-05T17:05:29;16.63;;;9.50;;
74900;SDS011;63461;51.416;6.758;2022-12-05T17:07:55;18.40;;;10.20;;
74900;SDS011;63461;51.416;6.758;2022-12-05T17:10:21;16.33;;;9.70;;
74900;SDS011;63461;51.416;6.758;2022-12-05T17:12:47;16.87;;;9.77;;
74900;SDS011;63461;51.416;6.758;2022-12-05T17:15:15;19.23;;;10.37;;
74900;SDS011;63461;51.416;6.758;2022-12-05T17:17:42;17.33;;;9.87;;
74900;SDS011;63461;51.416;6.758;2022-12-05T17:20:10;16.77;;;8.47;;
74900;SDS011;63461;51.416;6.758;2022-12-05T17:22:37;18.07;;;8.67;;
74900;SDS011;63461;51.416;6.758;2022-12-05T17:25:12;15.23;;;8.67;;
74900;SDS011;63461;51.416;6.758;2022-12-05T17:27:41;16.67;;;8.73;;
74900;SDS011;63461;51.416;6.758;2022-12-05T17:30:07;15.07;;;8.50;;
74900;SDS011;63461;51.416;6.758;2022-12-05T17:32:39;14.47;;;7.97;;